createdAt,value
2023-02-14T00:00:55.662Z,3.66
2023-02-14T00:03:22.278Z,3.65
2023-02-14T00:05:49.533Z,3.65
2023-02-14T00:08:16.485Z,3.62
2023-02-14T00:10:43.030Z,3.63
2023-02-14T00:13:09.679Z,3.62
2023-02-14T00:15:36.191Z,3.60
2023-02-14T00:18:03.573Z,3.57
2023-02-14T00:20:30.256Z,3.59
2023-02-14T00:22:56.855Z,3.57
2023-02-14T00:25:23.532Z,3.57
2023-02-14T00:27:50.911Z,3.50
2023-02-14T00:30:17.488Z,3.42
2023-02-14T00:32:44.171Z,3.37
2023-02-14T00:35:11.547Z,3.28
2023-02-14T00:37:38.467Z,3.21
2023-02-14T00:40:07.471Z,3.15
2023-02-14T00:42:34.348Z,3.12
2023-02-14T00:45:01.065Z,3.10
2023-02-14T00:47:27.646Z,3.07
2023-02-14T00:49:54.326Z,3.06
2023-02-14T00:52:20.873Z,3.05
2023-02-14T00:54:47.425Z,3.03
2023-02-14T00:57:14.183Z,3.03
2023-02-14T00:59:40.844Z,3.03
2023-02-14T01:02:07.457Z,3.00
2023-02-14T01:04:34.188Z,2.98
2023-02-14T01:07:00.737Z,2.98
2023-02-14T01:09:27.346Z,2.97
2023-02-14T01:11:54.010Z,2.98
2023-02-14T01:14:20.587Z,2.99
2023-02-14T01:16:47.150Z,2.99
2023-02-14T01:19:14.204Z,2.98
2023-02-14T01:21:41.815Z,2.98
2023-02-14T01:24:09.530Z,2.95
2023-02-14T01:26:36.665Z,2.92
2023-02-14T01:29:04.188Z,2.92
2023-02-14T01:31:32.648Z,2.90
2023-02-14T01:33:59.913Z,2.88
2023-02-14T01:36:30.069Z,2.87
2023-02-14T01:38:59.879Z,2.85
2023-02-14T01:41:29.071Z,2.85
2023-02-14T01:46:35.392Z,2.83
2023-02-14T01:51:43.198Z,2.84
2023-02-14T01:54:11.426Z,2.83
2023-02-14T01:56:41.720Z,2.83
2023-02-14T01:59:13.761Z,2.81
2023-02-14T02:01:41.575Z,2.81
2023-02-14T02:04:13.292Z,2.81
2023-02-14T02:06:43.458Z,2.78
2023-02-14T02:09:16.575Z,2.78
2023-02-14T02:11:43.493Z,2.75
2023-02-14T02:14:15.952Z,2.73
2023-02-14T02:20:00.487Z,2.66
2023-02-14T02:28:56.311Z,2.54
2023-02-14T02:31:43.534Z,2.54
2023-02-14T02:34:50.248Z,2.53
2023-02-14T02:51:13.744Z,2.46
2023-02-14T02:53:49.680Z,2.46
2023-02-14T02:59:18.840Z,2.83
2023-02-14T03:01:58.042Z,2.61
2023-02-14T03:04:46.758Z,2.54
2023-02-14T03:07:33.567Z,2.46
2023-02-14T03:10:02.242Z,2.45
2023-02-14T03:12:47.232Z,2.41
2023-02-14T03:21:00.758Z,2.34
2023-02-14T03:23:36.287Z,2.32
2023-02-14T03:29:06.126Z,2.28
2023-02-14T03:34:24.185Z,2.31
2023-02-14T03:42:11.694Z,2.51
2023-02-14T03:44:40.710Z,2.41
2023-02-14T03:47:12.204Z,2.37
2023-02-14T03:49:45.469Z,2.35
2023-02-14T03:52:14.485Z,2.33
2023-02-14T03:54:42.107Z,2.31
2023-02-14T03:57:24.607Z,2.27
2023-02-14T03:59:51.286Z,2.26
2023-02-14T04:02:25.137Z,2.24
2023-02-14T04:04:54.338Z,2.21
2023-02-14T04:07:23.226Z,2.20
2023-02-14T04:09:50.446Z,2.17
2023-02-14T04:12:26.540Z,2.17
2023-02-14T04:14:59.029Z,2.17
2023-02-14T04:17:45.458Z,2.19
2023-02-14T04:20:12.234Z,2.18
2023-02-14T04:22:38.766Z,2.19
2023-02-14T04:25:05.625Z,2.20
2023-02-14T04:27:32.175Z,2.21
2023-02-14T04:29:58.860Z,2.22
2023-02-14T04:32:25.515Z,2.21
2023-02-14T04:34:52.115Z,2.19
2023-02-14T04:37:19.715Z,2.21
2023-02-14T04:39:46.366Z,2.20
2023-02-14T04:42:14.296Z,2.19
2023-02-14T04:44:40.887Z,2.17
2023-02-14T04:47:08.377Z,2.19
2023-02-14T04:49:35.646Z,2.18
2023-02-14T04:52:03.005Z,2.18
2023-02-14T04:54:29.804Z,2.18
2023-02-14T04:56:56.392Z,2.18
2023-02-14T04:59:24.825Z,2.17
2023-02-14T05:01:52.000Z,2.19
2023-02-14T05:04:18.651Z,2.21
2023-02-14T05:06:45.210Z,2.23
2023-02-14T05:09:11.869Z,2.28
2023-02-14T05:11:38.533Z,2.29
2023-02-14T05:14:05.130Z,2.31
2023-02-14T05:16:31.794Z,2.34
2023-02-14T05:18:58.401Z,2.34
2023-02-14T05:21:25.054Z,2.36
2023-02-14T05:23:51.586Z,2.34
2023-02-14T05:26:18.214Z,2.35
2023-02-14T05:28:44.757Z,2.34
2023-02-14T05:31:11.591Z,2.35
2023-02-14T05:33:38.271Z,2.36
2023-02-14T05:36:05.303Z,2.33
2023-02-14T05:38:33.550Z,2.29
2023-02-14T05:41:00.343Z,2.28
2023-02-14T05:43:27.103Z,2.28
2023-02-14T05:45:54.689Z,2.27
2023-02-14T05:48:21.505Z,2.24
2023-02-14T05:50:48.279Z,2.24
2023-02-14T05:53:15.586Z,2.24
2023-02-14T05:55:42.167Z,2.25
2023-02-14T05:58:08.711Z,2.25
2023-02-14T06:00:35.286Z,2.25
2023-02-14T06:03:01.861Z,2.24
2023-02-14T06:05:28.541Z,2.27
2023-02-14T06:07:55.085Z,2.28
2023-02-14T06:10:23.696Z,2.30
2023-02-14T06:12:52.188Z,2.32
2023-02-14T06:15:19.234Z,2.35
2023-02-14T06:17:47.963Z,2.36
2023-02-14T06:20:14.519Z,2.37
2023-02-14T06:22:41.049Z,2.37
2023-02-14T06:25:07.815Z,2.36
2023-02-14T06:27:34.645Z,2.34
2023-02-14T06:30:01.253Z,2.38
2023-02-14T06:32:27.931Z,2.38
2023-02-14T06:34:54.476Z,2.39
2023-02-14T06:37:21.154Z,2.41
2023-02-14T06:39:47.729Z,2.41
2023-02-14T06:42:14.335Z,2.39
2023-02-14T06:44:40.924Z,2.37
2023-02-14T06:47:08.594Z,2.36
2023-02-14T06:49:35.199Z,2.37
2023-02-14T06:52:01.949Z,2.35
2023-02-14T06:54:28.481Z,2.33
2023-02-14T06:56:55.106Z,2.30
2023-02-14T06:59:21.800Z,2.28
2023-02-14T07:01:48.436Z,2.30
2023-02-14T07:04:14.991Z,2.34
2023-02-14T07:06:41.658Z,2.33
2023-02-14T07:09:08.322Z,2.33
2023-02-14T07:11:34.913Z,2.35
2023-02-14T07:14:01.534Z,2.37
2023-02-14T07:16:28.072Z,2.38
2023-02-14T07:18:54.661Z,2.39
2023-02-14T07:21:21.191Z,2.39
2023-02-14T07:23:50.005Z,2.39
2023-02-14T07:26:18.263Z,2.40
2023-02-14T07:28:45.696Z,2.44
2023-02-14T07:31:12.645Z,2.47
2023-02-14T07:33:39.266Z,2.49
2023-02-14T07:36:08.139Z,2.53
2023-02-14T07:38:35.234Z,2.56
2023-02-14T07:41:02.332Z,2.59
2023-02-14T07:43:29.060Z,2.62
2023-02-14T07:45:55.742Z,2.64
2023-02-14T07:48:22.564Z,2.67
2023-02-14T07:50:49.153Z,2.69
2023-02-14T07:53:15.710Z,2.72
2023-02-14T07:55:42.337Z,2.75
2023-02-14T07:58:09.378Z,2.75
2023-02-14T08:00:36.014Z,2.77
2023-02-14T08:03:02.567Z,2.79
2023-02-14T08:05:29.232Z,2.83
2023-02-14T08:07:55.767Z,2.87
2023-02-14T08:10:22.290Z,2.85
2023-02-14T08:13:05.048Z,2.82
2023-02-14T08:15:54.289Z,2.83
2023-02-14T08:18:23.211Z,2.85
2023-02-14T08:20:50.099Z,2.85
2023-02-14T08:23:18.056Z,2.85
2023-02-14T08:25:44.760Z,2.89
2023-02-14T08:28:13.282Z,2.88
2023-02-14T08:30:39.832Z,2.87
2023-02-14T08:33:07.097Z,2.91
2023-02-14T08:35:34.018Z,2.94
2023-02-14T08:38:00.812Z,2.97
2023-02-14T08:40:27.888Z,2.94
2023-02-14T08:42:54.549Z,2.97
2023-02-14T08:45:21.267Z,2.97
2023-02-14T08:47:47.886Z,2.99
2023-02-14T08:50:17.011Z,3.03
2023-02-14T08:52:44.348Z,3.06
2023-02-14T08:55:13.224Z,3.14
2023-02-14T08:57:40.458Z,3.19
2023-02-14T09:00:08.608Z,3.24
2023-02-14T09:02:35.848Z,3.29
2023-02-14T09:05:02.510Z,3.33
2023-02-14T09:07:29.192Z,3.34
2023-02-14T09:09:55.781Z,3.39
2023-02-14T09:12:22.341Z,3.45
2023-02-14T09:14:49.541Z,3.51
2023-02-14T09:17:16.507Z,3.55
2023-02-14T09:19:43.072Z,3.62
2023-02-14T09:22:11.452Z,3.67
2023-02-14T09:24:39.594Z,3.73
2023-02-14T09:27:07.887Z,3.79
2023-02-14T09:29:34.722Z,3.85
2023-02-14T09:32:02.754Z,3.90
2023-02-14T09:34:30.101Z,3.96
2023-02-14T09:36:56.953Z,4.02
2023-02-14T09:39:23.889Z,4.07
2023-02-14T09:42:03.157Z,4.17
2023-02-14T09:44:37.346Z,4.25
2023-02-14T09:47:21.282Z,4.27
2023-02-14T09:49:50.257Z,4.34
2023-02-14T09:52:19.803Z,4.39
2023-02-14T09:54:51.509Z,4.47
2023-02-14T10:02:46.921Z,4.72
2023-02-14T10:05:32.559Z,4.79
2023-02-14T10:10:46.589Z,4.92
2023-02-14T10:13:19.690Z,4.97
2023-02-14T10:15:50.869Z,5.01
2023-02-14T10:18:42.681Z,5.06
2023-02-14T10:21:16.173Z,5.11
2023-02-14T10:23:49.141Z,5.20
2023-02-14T10:26:24.928Z,5.25
2023-02-14T10:28:51.945Z,5.31
2023-02-14T10:34:04.938Z,5.43
2023-02-14T10:41:53.278Z,5.64
2023-02-14T10:49:54.627Z,5.82
2023-02-14T10:55:33.012Z,5.94
2023-02-14T10:58:03.072Z,5.98
2023-02-14T11:00:35.270Z,6.01
2023-02-14T11:03:06.225Z,6.06
2023-02-14T11:05:41.331Z,6.11
2023-02-14T11:10:51.878Z,6.21
2023-02-14T11:13:28.781Z,6.29
2023-02-14T11:15:59.633Z,6.38
2023-02-14T11:18:33.122Z,6.42
2023-02-14T11:21:10.771Z,6.47
2023-02-14T11:23:42.709Z,6.53
2023-02-14T11:26:17.437Z,6.59
2023-02-14T11:29:03.998Z,6.63
2023-02-14T11:31:35.298Z,6.71
2023-02-14T11:34:05.355Z,6.76
2023-02-14T11:36:32.727Z,6.75
2023-02-14T11:39:08.184Z,6.83
2023-02-14T11:41:51.191Z,6.91
2023-02-14T11:44:22.838Z,7.02
2023-02-14T11:46:53.382Z,7.07
2023-02-14T11:52:17.451Z,7.24
2023-02-14T11:54:49.519Z,7.36
2023-02-14T11:57:28.396Z,7.46
2023-02-14T11:59:57.170Z,7.58
2023-02-14T12:05:17.994Z,7.99
2023-02-14T12:07:46.419Z,7.89
2023-02-14T12:31:41.614Z,8.95
2023-02-14T12:34:12.127Z,9.07
2023-02-14T12:48:16.686Z,9.60
2023-02-14T13:04:40.902Z,9.82
2023-02-14T13:09:59.852Z,9.92
2023-02-14T13:17:52.435Z,9.99
2023-02-14T13:23:13.612Z,9.93
2023-02-14T13:25:49.849Z,9.98
2023-02-14T13:28:18.083Z,10.13
2023-02-14T13:30:44.742Z,10.23
2023-02-14T13:33:27.258Z,10.20
2023-02-14T13:36:00.107Z,10.17
2023-02-14T13:38:28.350Z,10.14
2023-02-14T13:40:57.726Z,10.12
2023-02-14T13:43:46.113Z,10.09
2023-02-14T13:46:15.056Z,10.15
2023-02-14T13:48:43.258Z,10.18
2023-02-14T13:51:10.719Z,10.19
2023-02-14T13:59:01.513Z,10.14
2023-02-14T14:01:50.246Z,10.11
2023-02-14T14:04:37.500Z,10.12
2023-02-14T14:12:38.179Z,10.40
2023-02-14T14:23:28.995Z,10.19
2023-02-14T14:25:55.606Z,10.21
2023-02-14T14:28:25.978Z,10.19
2023-02-14T14:30:52.849Z,10.17
2023-02-14T14:36:08.326Z,10.13
2023-02-14T14:38:47.313Z,10.06
2023-02-14T14:41:14.005Z,10.12
2023-02-14T14:43:41.486Z,10.10
2023-02-14T14:46:12.270Z,10.10
2023-02-14T14:48:50.184Z,10.05
2023-02-14T14:51:31.092Z,10.10
2023-02-14T14:54:01.338Z,10.11
2023-02-14T14:56:31.799Z,10.12
2023-02-14T14:59:15.366Z,10.15
2023-02-14T15:01:46.880Z,10.12
2023-02-14T15:06:51.835Z,10.13
2023-02-14T15:09:24.297Z,10.05
2023-02-14T15:12:13.231Z,10.07
2023-02-14T15:14:43.795Z,10.07
2023-02-14T15:19:54.677Z,10.10
2023-02-14T15:22:41.518Z,10.08
2023-02-14T15:25:12.863Z,10.06
2023-02-14T15:27:41.496Z,10.12
2023-02-14T15:32:57.865Z,10.10
2023-02-14T15:35:27.795Z,10.09
2023-02-14T15:37:57.122Z,10.07
2023-02-14T15:40:28.114Z,10.06
2023-02-14T15:42:57.449Z,10.05
2023-02-14T15:48:11.537Z,10.10
2023-02-14T15:50:46.786Z,10.08
2023-02-14T15:56:04.836Z,10.08
2023-02-14T15:58:35.483Z,10.08
2023-02-14T16:01:03.173Z,10.08
2023-02-14T16:03:33.973Z,10.07
2023-02-14T16:06:00.808Z,10.02
2023-02-14T16:11:15.865Z,10.02
2023-02-14T16:13:45.227Z,10.01
2023-02-14T16:16:14.112Z,10.00
2023-02-14T16:24:12.653Z,9.82
2023-02-14T16:29:17.093Z,9.74
2023-02-14T16:32:14.177Z,9.71
2023-02-14T16:34:34.371Z,9.66
2023-02-14T16:37:08.559Z,9.65
2023-02-14T16:39:35.674Z,9.66
2023-02-14T16:42:03.441Z,9.66
2023-02-14T16:44:30.030Z,9.62
2023-02-14T16:46:56.543Z,9.61
2023-02-14T16:49:23.849Z,9.57
2023-02-14T16:51:52.047Z,9.56
2023-02-14T16:54:20.609Z,9.52
2023-02-14T16:56:55.853Z,9.45
2023-02-14T16:59:23.061Z,9.41
2023-02-14T17:01:49.999Z,9.39
2023-02-14T17:04:16.595Z,9.35
2023-02-14T17:06:48.258Z,9.32
2023-02-14T17:09:17.806Z,9.28
2023-02-14T17:11:48.922Z,9.23
2023-02-14T17:14:19.681Z,9.17
2023-02-14T17:16:46.298Z,9.10
2023-02-14T17:19:13.710Z,9.03
2023-02-14T17:21:41.088Z,8.97
2023-02-14T17:24:07.642Z,8.91
2023-02-14T17:26:34.260Z,8.86
2023-02-14T17:29:00.948Z,8.78
2023-02-14T17:31:28.635Z,8.71
2023-02-14T17:33:55.443Z,8.66
2023-02-14T17:36:24.146Z,8.62
2023-02-14T17:38:53.338Z,8.57
2023-02-14T17:41:22.703Z,8.53
2023-02-14T17:43:50.402Z,8.48
2023-02-14T17:46:18.977Z,8.44
2023-02-14T17:48:46.334Z,8.40
2023-02-14T17:51:14.411Z,8.31
2023-02-14T17:53:41.759Z,8.31
2023-02-14T17:56:12.324Z,8.27
2023-02-14T17:58:39.165Z,8.27
2023-02-14T18:01:08.950Z,8.27
2023-02-14T18:03:36.165Z,8.27
2023-02-14T18:06:03.423Z,8.27
2023-02-14T18:08:32.186Z,8.26
2023-02-14T18:10:59.761Z,8.22
2023-02-14T18:13:26.720Z,8.19
2023-02-14T18:15:53.569Z,8.15
2023-02-14T18:18:20.500Z,8.12
2023-02-14T18:20:55.207Z,8.07
2023-02-14T18:23:22.634Z,8.05
2023-02-14T18:25:55.030Z,8.00
2023-02-14T18:28:23.032Z,7.93
2023-02-14T18:30:49.704Z,7.87
2023-02-14T18:33:17.805Z,7.82
2023-02-14T18:35:45.154Z,7.78
2023-02-14T18:38:12.066Z,7.74
2023-02-14T18:40:39.091Z,7.69
2023-02-14T18:43:05.867Z,7.65
2023-02-14T18:45:37.993Z,7.63
2023-02-14T18:48:05.845Z,7.60
2023-02-14T18:50:34.716Z,7.56
2023-02-14T18:53:01.350Z,7.52
2023-02-14T18:55:28.833Z,7.50
2023-02-14T18:57:55.441Z,7.46
2023-02-14T19:00:22.449Z,7.43
2023-02-14T19:02:49.030Z,7.38
2023-02-14T19:05:15.708Z,7.35
2023-02-14T19:07:42.394Z,7.31
2023-02-14T19:10:09.748Z,7.28
2023-02-14T19:12:36.361Z,7.25
2023-02-14T19:15:03.554Z,7.19
2023-02-14T19:17:30.233Z,7.16
2023-02-14T19:19:57.323Z,7.11
2023-02-14T19:22:24.084Z,7.01
2023-02-14T19:24:53.787Z,6.92
2023-02-14T19:27:21.604Z,6.84
2023-02-14T19:29:48.284Z,6.77
2023-02-14T19:32:14.963Z,6.69
2023-02-14T19:34:41.555Z,6.63
2023-02-14T19:37:08.074Z,6.56
2023-02-14T19:39:34.667Z,6.53
2023-02-14T19:42:01.273Z,6.47
2023-02-14T19:44:29.387Z,6.45
2023-02-14T19:46:56.676Z,6.39
2023-02-14T19:49:23.509Z,6.35
2023-02-14T19:51:51.468Z,6.31
2023-02-14T19:54:18.823Z,6.27
2023-02-14T19:56:46.727Z,6.26
2023-02-14T19:59:19.750Z,6.23
2023-02-14T20:01:50.539Z,6.22
2023-02-14T20:04:21.619Z,6.19
2023-02-14T20:06:49.123Z,6.19
2023-02-14T20:09:16.522Z,6.16
2023-02-14T20:11:49.967Z,6.13
2023-02-14T20:14:19.462Z,6.10
2023-02-14T20:16:47.271Z,6.03
2023-02-14T20:19:17.159Z,5.98
2023-02-14T20:21:46.105Z,5.88
2023-02-14T20:24:15.962Z,5.78
2023-02-14T20:26:42.758Z,5.71
2023-02-14T20:29:10.857Z,5.65
2023-02-14T20:31:42.928Z,5.65
2023-02-14T20:34:10.463Z,5.65
2023-02-14T20:36:37.396Z,5.66
2023-02-14T20:39:06.286Z,5.66
2023-02-14T20:41:35.045Z,5.65
2023-02-14T20:44:04.879Z,5.64
2023-02-14T20:46:32.062Z,5.60
2023-02-14T20:48:58.722Z,5.57
2023-02-14T20:51:26.399Z,5.53
2023-02-14T20:53:53.789Z,5.47
2023-02-14T20:56:21.559Z,5.45
2023-02-14T20:58:48.253Z,5.43
2023-02-14T21:01:17.840Z,5.42
2023-02-14T21:03:47.540Z,5.39
2023-02-14T21:06:15.073Z,5.36
2023-02-14T21:08:43.101Z,5.31
2023-02-14T21:11:11.600Z,5.26
2023-02-14T21:13:39.257Z,5.22
2023-02-14T21:16:09.303Z,5.19
2023-02-14T21:18:37.715Z,5.12
2023-02-14T21:21:06.674Z,5.10
2023-02-14T21:23:33.459Z,5.06
2023-02-14T21:26:00.069Z,5.05
2023-02-14T21:28:26.690Z,5.02
2023-02-14T21:31:01.789Z,5.01
2023-02-14T21:33:31.341Z,4.98
2023-02-14T21:36:04.859Z,4.94
2023-02-14T21:38:31.430Z,4.92
2023-02-14T21:41:04.917Z,4.87
2023-02-14T21:43:37.483Z,4.85
2023-02-14T21:46:06.331Z,4.83
2023-02-14T21:48:53.179Z,4.79
2023-02-14T21:51:20.442Z,4.75
2023-02-14T21:53:47.534Z,4.73
2023-02-14T21:56:18.070Z,4.72
2023-02-14T21:58:44.775Z,4.69
2023-02-14T22:01:25.151Z,4.66
2023-02-14T22:03:52.183Z,4.66
2023-02-14T22:06:19.225Z,4.66
2023-02-14T22:08:45.988Z,4.63
2023-02-14T22:11:15.326Z,4.65
2023-02-14T22:13:42.446Z,4.66
2023-02-14T22:16:13.080Z,4.68
2023-02-14T22:18:40.209Z,4.70
2023-02-14T22:21:11.482Z,4.74
2023-02-14T22:23:38.808Z,4.76
2023-02-14T22:26:23.373Z,4.78
2023-02-14T22:28:51.193Z,4.79
2023-02-14T22:31:18.688Z,4.81
2023-02-14T22:33:46.553Z,4.80
2023-02-14T22:36:13.217Z,4.80
2023-02-14T22:38:40.049Z,4.78
2023-02-14T22:43:43.244Z,4.74
2023-02-14T22:46:13.557Z,4.72
2023-02-14T22:48:40.834Z,4.69
2023-02-14T22:53:44.233Z,4.66
2023-02-14T22:56:13.627Z,4.63
2023-02-14T22:58:40.489Z,4.62
2023-02-14T23:01:11.997Z,4.60
2023-02-14T23:03:38.560Z,4.61
2023-02-14T23:06:05.172Z,4.63
2023-02-14T23:08:31.740Z,4.60
2023-02-14T23:11:06.447Z,4.60
2023-02-14T23:13:52.905Z,4.60
2023-02-14T23:16:39.372Z,4.57
2023-02-14T23:19:25.864Z,4.55
2023-02-14T23:21:55.678Z,4.55
2023-02-14T23:24:23.332Z,4.56
2023-02-14T23:26:50.488Z,4.55
2023-02-14T23:29:17.417Z,4.55
2023-02-14T23:31:44.184Z,4.57
2023-02-14T23:34:11.520Z,4.57
2023-02-14T23:36:38.329Z,4.54
2023-02-14T23:39:05.521Z,4.53
2023-02-14T23:41:47.686Z,4.51
2023-02-14T23:44:16.504Z,4.48
2023-02-14T23:46:43.441Z,4.47
2023-02-14T23:49:10.927Z,4.47
2023-02-14T23:51:37.492Z,4.46
2023-02-14T23:54:04.348Z,4.46
2023-02-14T23:56:30.973Z,4.45
2023-02-14T23:58:57.583Z,4.43
